Daytona Beach, FL (32114)

2:03 PM EDT on August 25, 2016 (GMT -0400)
Daytona State College | | Change Station

Elev 0 ft 29.20 °N, 81.05 °W | Updated 1 minute ago

Scattered Clouds
Scattered Clouds
85.9 °F
Feels Like 94 °F
N
16.0
Wind Variable Wind from NNE
Gusts 17.0 mph

Today
High -- | Low -- °F
--% Chance of Precip.
Yesterday
High -- | Low -- °F
Precip. -- in
Pressure 30.07 in
Visibility 10.0 miles
Clouds Scattered Clouds 3300 ft
Scattered Clouds 15000 ft
Heat Index 94 °F
Dew Point 75 °F
Humidity 69%
Rainfall 0.00 in
Snow Depth Not available.
6:58 AM 7:53 PM
Last Quarter, 43% visible
METAR KDAB 251753Z 05016KT 10SM SCT033 SCT150 32/22 A3007 RMK AO2 SLP181 T03170217 10339 20283 58007
Pressure 30.07 in
Visibility 10.0 miles
Clouds Scattered Clouds 3300 ft
Scattered Clouds 15000 ft
Heat Index 94 °F
Dew Point 75 °F
Humidity 69%
Rainfall 0.00 in
Snow Depth Not available.
6:58 AM 7:53 PM
Last Quarter, 43% visible
METAR KDAB 251753Z 05016KT 10SM SCT033 SCT150 32/22 A3007 RMK AO2 SLP181 T03170217 10339 20283 58007
A tropical disturbance pushing toward the Bahamas, is expected to develop into a tropical depression or storm, and will likely target Florida and the Gulf Coast this weekend into next week.

Right now, the disturbance remains a broad area of low pressure pushing through the Dominican Republic and Haiti, headed toward the southeast Bahamas. Rainfall totals over 3 inches (with locally higher amounts) are expected in HispaƱiola, particularly over elevated terrain.

10-Day Weather Forecast

Almanac

Astronomy

Aug. 25, 2016 Rise Set
Actual Time
Civil Twilight
Nautical Twilight
Astronomical Twilight
Moon
Length of Visible Light
Length of Day
Tomorrow will be .
, % of the Moon is Illuminated

Today's Extremes

State Highs State Lows

Community

WunderPhotos

Upload Photos

1,934,890 photos uploaded!

WunderBlog® & News

Nearby

Air Quality

  Air Quality AQ Index Pollutant
Not available.

Snow Depth

Station Depth Elevation

Earthquake Activity

City Distance Mag. Time & Date
Minimum magnitude displayed is 2.5.

Coastal Water Temperatures

Place Temperature

Stations

Nearby Weather Stations

Station Location Temp. Windchill Dew Point Humidity Wind Precip. Elev Updated Type
                   

Watches & Warnings

There are currently no watches in effect.